Mount Hersey, Arkansas
Current Conditions -  °F | °C
As of 2:53 PM on Tuesday 25 Nov 2014 (Local Time) from KHRO Reporting Station
Clear Clear  
Wind Chill: 44°   Ceiling: Unl
Heat Index: 47°   Visibility: 10mi
Dew Point: 17°   Wind: 6mph
Humidity: 30%   Direction: 320°NW
Pressure: 30.13"   Gusts: NA
Location:  36.0414°N, 92.9867°W
Report Text: KHRO 252053Z AUTO 32005KT 10SM CLR 08/M08 A3013 RMK AO2 SLP209 T00831083 56029
Loading
Personal Weather Stations






























Interactive Weather Map New forecast layout! Learn more

10-Day Weather Forecast

Advertisements
Track Severe Weather on mobile